Time;durP1;ratioP1;P1;durP2;ratioP2;P2;SDS_P1;SDS_P2;PMS_P1;PMS_P2;Temp;Humidity;BMP_temperature;BMP_pressure;BME280_temperature;BME280_humidity;BME280_pressure;Samples;Min_cycle;Max_cycle;Signal;HPM_P1;HPM_P2
2023/05/01 00:00:55;;;;;;;7.10;3.10;;;14.60;58.00;;;;;;5072658;28;20460;-63
2023/05/01 00:03:20;;;;;;;6.45;2.95;;;14.60;57.90;;;;;;5073181;28;20028;-63
2023/05/01 00:05:47;;;;;;;6.55;3.05;;;14.50;57.80;;;;;;5065344;28;20040;-63
2023/05/01 00:08:12;;;;;;;5.88;2.70;;;14.50;57.80;;;;;;5054819;28;20041;-63
2023/05/01 00:10:38;;;;;;;7.10;3.03;;;14.50;57.90;;;;;;5070854;28;20463;-63
2023/05/01 00:13:04;;;;;;;6.97;2.80;;;14.50;58.50;;;;;;5073877;28;20028;-63
2023/05/01 00:15:31;;;;;;;7.88;3.47;;;14.50;57.80;;;;;;5067788;28;20446;-63
2023/05/01 00:17:57;;;;;;;9.85;3.17;;;14.50;57.60;;;;;;5068678;28;20048;-63
2023/05/01 00:20:29;;;;;;;8.70;2.70;;;14.50;57.60;;;;;;5068534;28;20459;-63
2023/05/01 00:22:56;;;;;;;8.80;3.17;;;14.50;57.50;;;;;;5073010;28;20183;-63
2023/05/01 00:25:22;;;;;;;8.00;3.35;;;14.50;57.50;;;;;;5065584;28;20345;-63
2023/05/01 00:27:48;;;;;;;7.25;2.92;;;14.50;57.50;;;;;;5068175;28;20161;-63
2023/05/01 00:30:14;;;;;;;9.60;2.92;;;14.50;57.50;;;;;;5069396;28;20073;-63
2023/05/01 00:32:40;;;;;;;6.82;2.78;;;14.50;57.40;;;;;;5066621;28;20105;-63
2023/05/01 00:35:06;;;;;;;8.43;2.95;;;14.50;57.40;;;;;;5069008;28;20356;-63
2023/05/01 00:37:32;;;;;;;6.75;2.63;;;14.40;57.30;;;;;;5058970;28;20048;-63
2023/05/01 00:39:58;;;;;;;7.40;3.08;;;14.40;57.40;;;;;;5073409;28;20088;-63
2023/05/01 00:42:23;;;;;;;7.25;2.97;;;14.40;57.40;;;;;;5076823;28;20036;-63
2023/05/01 00:44:49;;;;;;;7.55;3.13;;;14.40;57.40;;;;;;5067092;28;20035;-63
2023/05/01 00:47:16;;;;;;;7.18;3.00;;;14.40;57.50;;;;;;5075818;28;20365;-63
2023/05/01 00:49:43;;;;;;;7.72;3.28;;;14.40;57.50;;;;;;5074485;28;20081;-63
2023/05/01 00:52:09;;;;;;;7.13;2.70;;;14.40;57.40;;;;;;5072950;28;20041;-63
2023/05/01 00:54:35;;;;;;;6.93;2.78;;;14.30;57.20;;;;;;5058413;28;20119;-63
2023/05/01 00:57:02;;;;;;;7.55;3.40;;;14.30;57.10;;;;;;5065202;28;20366;-63
2023/05/01 00:59:28;;;;;;;8.27;3.33;;;14.40;57.20;;;;;;5072082;28;20036;-63
2023/05/01 01:01:54;;;;;;;8.25;3.22;;;14.40;57.10;;;;;;5059539;28;20028;-63
2023/05/01 01:04:20;;;;;;;8.57;3.05;;;14.40;57.20;;;;;;5074852;28;20369;-63
2023/05/01 01:07:29;;;;;;;9.18;2.85;;;14.30;57.00;;;;;;5074514;28;20495;-63
2023/05/01 01:10:17;;;;;;;7.50;2.63;;;14.30;57.00;;;;;;5045413;28;20040;-63
2023/05/01 01:13:06;;;;;;;7.47;2.72;;;14.30;56.90;;;;;;5075668;28;20032;-63
2023/05/01 01:15:51;;;;;;;6.13;2.65;;;14.30;56.80;;;;;;5066334;28;20040;-63
2023/05/01 01:18:42;;;;;;;5.88;2.70;;;14.30;56.60;;;;;;5075481;28;20032;-63
2023/05/01 01:21:14;;;;;;;6.18;2.67;;;14.30;56.80;;;;;;5061944;28;20084;-63
2023/05/01 01:24:01;;;;;;;8.13;2.78;;;14.30;56.90;;;;;;5075505;28;20349;-63
2023/05/01 01:26:57;;;;;;;7.53;2.80;;;14.30;56.60;;;;;;5073270;28;20025;-63
2023/05/01 01:29:38;;;;;;;6.97;2.78;;;14.30;56.60;;;;;;4988720;28;20507;-63
2023/05/01 01:32:38;;;;;;;7.32;3.05;;;14.30;56.60;;;;;;5072645;28;20043;-64
2023/05/01 01:35:11;;;;;;;7.18;2.40;;;14.30;56.30;;;;;;5071565;28;20028;-62
2023/05/01 01:37:47;;;;;;;8.85;3.13;;;14.30;56.90;;;;;;5076385;28;20029;-63
2023/05/01 01:40:17;;;;;;;6.22;2.60;;;14.30;56.20;;;;;;5057979;28;20361;-62
2023/05/01 01:42:51;;;;;;;10.07;2.90;;;14.20;56.10;;;;;;5074471;28;20107;-63
2023/05/01 01:45:24;;;;;;;6.30;2.65;;;14.20;56.20;;;;;;5073214;28;20036;-62
2023/05/01 01:47:51;;;;;;;8.82;3.13;;;14.20;56.00;;;;;;5075353;28;20415;-62
2023/05/01 01:50:21;;;;;;;6.82;2.95;;;14.20;56.10;;;;;;5072691;28;20017;-62
2023/05/01 01:52:48;;;;;;;6.68;2.63;;;14.20;56.10;;;;;;5058819;28;20472;-62
2023/05/01 01:55:16;;;;;;;6.75;2.80;;;14.20;56.00;;;;;;5069220;28;20024;-63
2023/05/01 01:57:44;;;;;;;6.43;2.97;;;14.20;55.80;;;;;;5070923;28;20409;-62
2023/05/01 02:00:12;;;;;;;7.20;3.03;;;14.20;55.70;;;;;;5067129;28;20124;-63
2023/05/01 02:02:48;;;;;;;7.53;2.65;;;14.10;55.60;;;;;;5065735;28;20029;-63
2023/05/01 02:05:16;;;;;;;7.70;3.08;;;14.10;55.60;;;;;;5066019;28;20107;-63
2023/05/01 02:07:47;;;;;;;5.93;2.63;;;14.10;55.50;;;;;;5057474;28;20028;-62
2023/05/01 02:10:14;;;;;;;11.70;2.88;;;14.10;55.50;;;;;;5061529;28;20021;-63
2023/05/01 02:12:49;;;;;;;6.53;2.85;;;14.10;55.50;;;;;;5073810;28;21291;-63
2023/05/01 02:15:17;;;;;;;5.88;2.45;;;14.10;55.60;;;;;;5072256;28;20025;-63
2023/05/01 02:17:44;;;;;;;6.30;2.72;;;14.10;55.50;;;;;;5055362;28;20028;-63
2023/05/01 02:20:11;;;;;;;6.80;3.00;;;14.00;55.50;;;;;;5068035;28;20013;-62
2023/05/01 02:22:41;;;;;;;9.07;3.10;;;14.10;55.50;;;;;;5074332;28;20104;-62
2023/05/01 02:25:11;;;;;;;7.15;2.95;;;14.00;55.50;;;;;;5063079;28;20357;-62
2023/05/01 02:27:49;;;;;;;7.57;2.80;;;14.10;55.40;;;;;;5066022;28;20025;-63
2023/05/01 02:30:17;;;;;;;7.45;2.95;;;14.10;55.30;;;;;;5063461;28;20029;-63
2023/05/01 02:32:43;;;;;;;7.10;2.60;;;14.10;55.30;;;;;;5071250;28;20425;-63
2023/05/01 02:35:09;;;;;;;6.07;2.88;;;14.00;55.20;;;;;;5072380;28;20013;-62
2023/05/01 02:37:37;;;;;;;7.93;2.65;;;14.00;55.20;;;;;;5068306;28;20039;-62
2023/05/01 02:40:03;;;;;;;7.47;2.63;;;14.00;55.10;;;;;;5063783;28;20031;-63
2023/05/01 02:42:31;;;;;;;8.30;3.40;;;14.00;55.00;;;;;;5053128;28;20099;-62
2023/05/01 02:45:01;;;;;;;7.10;2.53;;;14.00;55.00;;;;;;5071558;28;20025;-62
2023/05/01 02:47:29;;;;;;;7.82;2.72;;;14.00;55.00;;;;;;5053653;28;20116;-62
2023/05/01 02:49:56;;;;;;;6.65;2.70;;;14.00;55.20;;;;;;5082350;28;20330;-62
2023/05/01 02:52:22;;;;;;;6.72;2.83;;;14.00;55.20;;;;;;5065301;28;20068;-62
2023/05/01 02:54:54;;;;;;;7.88;2.60;;;14.00;55.20;;;;;;5063551;28;20031;-63
2023/05/01 02:57:21;;;;;;;8.60;2.85;;;14.00;55.20;;;;;;5073696;28;20029;-62
2023/05/01 02:59:47;;;;;;;7.40;2.85;;;14.00;55.10;;;;;;5074450;28;20385;-62
2023/05/01 03:02:14;;;;;;;7.25;2.92;;;14.00;55.20;;;;;;5055056;28;20020;-63
2023/05/01 03:04:41;;;;;;;6.93;2.40;;;14.00;55.20;;;;;;5070450;28;20024;-63
2023/05/01 03:07:08;;;;;;;8.80;2.72;;;14.00;55.10;;;;;;5070657;28;20029;-62
2023/05/01 03:09:33;;;;;;;6.70;2.75;;;14.00;55.30;;;;;;5066364;28;20025;-63
2023/05/01 03:11:59;;;;;;;7.47;2.83;;;13.90;55.00;;;;;;5073335;28;20373;-62
2023/05/01 03:14:27;;;;;;;10.07;3.10;;;13.90;55.00;;;;;;5067641;28;20020;-62
2023/05/01 03:16:53;;;;;;;11.32;3.72;;;14.00;55.10;;;;;;5069233;28;20047;-62
2023/05/01 03:19:19;;;;;;;7.18;2.60;;;13.90;55.10;;;;;;5072903;28;20035;-62
2023/05/01 03:21:45;;;;;;;5.43;2.35;;;13.90;55.10;;;;;;5073168;28;20032;-62
2023/05/01 03:24:11;;;;;;;6.38;2.90;;;13.90;55.10;;;;;;5069042;28;20441;-62
2023/05/01 03:26:37;;;;;;;7.35;3.22;;;13.90;55.10;;;;;;5061943;28;20025;-62
2023/05/01 03:29:03;;;;;;;8.45;2.60;;;13.90;55.20;;;;;;5062366;28;20032;-63
2023/05/01 03:31:29;;;;;;;7.80;2.83;;;13.90;55.20;;;;;;5067991;28;20360;-62
2023/05/01 03:33:57;;;;;;;7.05;3.00;;;13.90;55.10;;;;;;5052445;28;20586;-62
2023/05/01 03:36:24;;;;;;;6.63;3.00;;;13.80;55.20;;;;;;5070461;28;20350;-62
2023/05/01 03:38:50;;;;;;;9.07;3.28;;;13.90;55.20;;;;;;5072516;28;20421;-62
2023/05/01 03:41:34;;;;;;;7.70;3.28;;;13.80;55.80;;;;;;5059782;28;20479;-62
2023/05/01 03:44:27;;;;;;;6.55;3.00;;;13.80;55.30;;;;;;5065252;28;20041;-62
2023/05/01 03:46:53;;;;;;;7.18;2.85;;;13.80;55.40;;;;;;5071723;28;20472;-62
2023/05/01 03:49:23;;;;;;;8.55;2.80;;;13.80;55.40;;;;;;5060231;28;20029;-62
2023/05/01 03:51:50;;;;;;;8.88;2.92;;;13.80;55.40;;;;;;5072501;28;20400;-63
2023/05/01 03:54:17;;;;;;;10.02;2.95;;;13.80;55.40;;;;;;5072089;28;20032;-62
2023/05/01 03:56:57;;;;;;;8.20;3.00;;;13.70;55.30;;;;;;5059304;28;20024;-62
2023/05/01 03:59:23;;;;;;;7.30;2.88;;;13.70;55.40;;;;;;5070602;28;20598;-62
2023/05/01 04:01:49;;;;;;;7.63;3.17;;;13.70;55.50;;;;;;5072105;28;20089;-62
2023/05/01 04:04:15;;;;;;;6.97;2.92;;;13.70;55.50;;;;;;5071320;28;20030;-62
2023/05/01 04:06:47;;;;;;;6.55;3.22;;;13.70;55.50;;;;;;5071344;28;20054;-62
2023/05/01 04:09:13;;;;;;;9.10;3.65;;;13.70;55.60;;;;;;5066269;28;20032;-62
2023/05/01 04:11:38;;;;;;;9.07;3.55;;;13.70;55.50;;;;;;5068913;28;20353;-62
2023/05/01 04:14:04;;;;;;;9.68;3.22;;;13.70;55.50;;;;;;5065743;28;20024;-62
2023/05/01 04:16:30;;;;;;;8.13;3.95;;;13.70;55.60;;;;;;5071448;28;20115;-62
2023/05/01 04:18:56;;;;;;;11.30;4.03;;;13.70;55.60;;;;;;5073063;28;20489;-62
2023/05/01 04:21:22;;;;;;;8.48;3.80;;;13.70;55.70;;;;;;5070932;28;20067;-62
2023/05/01 04:23:50;;;;;;;7.85;3.20;;;13.70;55.70;;;;;;5065102;28;20025;-62
2023/05/01 04:26:16;;;;;;;8.68;3.30;;;13.70;55.70;;;;;;5067766;28;20118;-62
2023/05/01 04:28:43;;;;;;;6.78;3.38;;;13.70;55.80;;;;;;5056162;28;20025;-63
2023/05/01 04:31:11;;;;;;;8.63;3.13;;;13.70;55.90;;;;;;5057310;28;20358;-62
2023/05/01 04:33:37;;;;;;;8.00;3.17;;;13.70;55.80;;;;;;5037756;28;20472;-62
2023/05/01 04:36:03;;;;;;;10.80;3.42;;;13.70;55.80;;;;;;5056829;28;20021;-62
2023/05/01 04:38:30;;;;;;;7.68;3.05;;;13.70;55.80;;;;;;5057873;28;20025;-62
2023/05/01 04:40:57;;;;;;;6.60;3.20;;;13.70;55.90;;;;;;5070300;28;20065;-62
2023/05/01 04:43:22;;;;;;;9.20;3.38;;;13.70;55.80;;;;;;5061605;28;20441;-62
2023/05/01 04:45:48;;;;;;;9.27;3.28;;;13.70;55.80;;;;;;5063388;28;20032;-63
2023/05/01 04:48:14;;;;;;;7.93;3.45;;;13.70;55.80;;;;;;5053581;28;20032;-63
2023/05/01 04:50:40;;;;;;;7.43;3.17;;;13.70;55.70;;;;;;5062601;28;20025;-63
2023/05/01 04:53:06;;;;;;;7.72;3.17;;;13.70;55.70;;;;;;5069513;28;20036;-63
2023/05/01 04:55:34;;;;;;;7.95;3.67;;;13.70;55.70;;;;;;5068872;28;20028;-63
2023/05/01 04:58:14;;;;;;;7.63;3.07;;;13.70;55.70;;;;;;5054740;28;20032;-63
2023/05/01 05:00:42;;;;;;;7.07;3.38;;;13.80;55.70;;;;;;5054891;28;20071;-64
2023/05/01 05:03:10;;;;;;;9.07;3.33;;;13.70;55.70;;;;;;5062502;28;20028;-63
2023/05/01 05:05:36;;;;;;;9.25;3.65;;;13.70;55.70;;;;;;5052180;28;20472;-63
2023/05/01 05:08:04;;;;;;;7.03;3.60;;;13.80;55.70;;;;;;5065834;28;20108;-62
2023/05/01 05:10:35;;;;;;;8.40;3.80;;;13.80;55.70;;;;;;5069162;28;20025;-63
2023/05/01 05:13:30;;;;;;;10.93;4.30;;;13.80;55.60;;;;;;5039196;28;20419;-63
2023/05/01 05:16:01;;;;;;;7.68;3.20;;;13.80;55.60;;;;;;5065485;28;20040;-63
2023/05/01 05:18:27;;;;;;;7.53;3.38;;;13.80;55.60;;;;;;5055698;28;20025;-63
2023/05/01 05:20:54;;;;;;;8.18;3.35;;;13.80;55.50;;;;;;5058818;28;20032;-63
2023/05/01 05:23:20;;;;;;;8.65;3.53;;;13.80;55.40;;;;;;5068942;28;20457;-63
2023/05/01 05:25:46;;;;;;;8.00;3.47;;;13.90;55.40;;;;;;5068403;28;20036;-64
2023/05/01 05:28:12;;;;;;;9.32;3.40;;;13.80;55.40;;;;;;5074350;28;20025;-64
2023/05/01 05:30:38;;;;;;;7.68;3.45;;;13.90;55.50;;;;;;5088605;28;20039;-63
2023/05/01 05:33:07;;;;;;;7.13;3.33;;;13.90;55.40;;;;;;5057656;28;20077;-63
2023/05/01 05:35:34;;;;;;;8.07;3.75;;;13.90;55.40;;;;;;5063623;28;20585;-63
2023/05/01 05:38:00;;;;;;;7.05;3.20;;;14.00;55.40;;;;;;5081012;28;20469;-63
2023/05/01 05:40:27;;;;;;;9.45;3.83;;;14.00;55.30;;;;;;5067192;28;20463;-63
2023/05/01 05:42:56;;;;;;;10.00;3.95;;;14.00;55.30;;;;;;5071023;28;20036;-63
2023/05/01 05:45:23;;;;;;;9.10;3.53;;;14.00;55.10;;;;;;5060536;28;20021;-63
2023/05/01 05:47:49;;;;;;;10.45;4.55;;;14.20;55.00;;;;;;5063527;28;20036;-63
2023/05/01 05:50:15;;;;;;;8.48;3.65;;;14.30;55.00;;;;;;5063926;28;20017;-63
2023/05/01 05:52:43;;;;;;;7.57;3.72;;;14.40;55.40;;;;;;5056482;28;20370;-63
2023/05/01 05:55:09;;;;;;;7.32;3.42;;;14.60;54.30;;;;;;5071934;28;20019;-63
2023/05/01 05:57:36;;;;;;;7.72;3.20;;;14.80;53.80;;;;;;5073027;28;20025;-63
2023/05/01 06:00:05;;;;;;;9.23;3.97;;;14.90;53.70;;;;;;5058146;28;20017;-63
2023/05/01 06:02:38;;;;;;;8.57;3.70;;;14.80;53.60;;;;;;5066695;28;20025;-63
2023/05/01 06:05:05;;;;;;;10.63;4.32;;;14.70;53.80;;;;;;5072794;28;20386;-63
2023/05/01 06:07:31;;;;;;;8.13;3.55;;;14.70;53.90;;;;;;5058056;28;20034;-63
2023/05/01 06:10:03;;;;;;;10.50;3.83;;;14.60;54.10;;;;;;5070609;28;20037;-63
2023/05/01 06:12:30;;;;;;;8.35;3.42;;;14.60;54.10;;;;;;5074926;28;20020;-63
2023/05/01 06:14:59;;;;;;;8.10;3.58;;;14.60;54.20;;;;;;5073656;28;20032;-63
2023/05/01 06:17:26;;;;;;;9.55;3.83;;;14.50;54.10;;;;;;5066652;28;20120;-63
2023/05/01 06:19:52;;;;;;;11.88;4.35;;;14.50;54.20;;;;;;5071538;28;20115;-62
2023/05/01 06:22:18;;;;;;;10.63;4.32;;;14.50;54.30;;;;;;5064757;28;20465;-62
2023/05/01 06:24:58;;;;;;;8.25;3.65;;;14.50;54.60;;;;;;5071540;28;20036;-62
2023/05/01 06:27:25;;;;;;;9.90;4.03;;;14.50;54.60;;;;;;5071768;28;20020;-62
2023/05/01 06:29:51;;;;;;;8.57;3.80;;;14.50;54.60;;;;;;5070639;28;20339;-62
2023/05/01 06:32:17;;;;;;;8.88;4.07;;;14.50;54.60;;;;;;5074185;28;20027;-62
2023/05/01 06:34:44;;;;;;;8.40;3.53;;;14.50;54.60;;;;;;5067289;28;20020;-63
2023/05/01 06:37:10;;;;;;;8.07;3.60;;;14.50;54.60;;;;;;5065912;28;20119;-63
2023/05/01 06:39:35;;;;;;;8.45;3.55;;;14.40;54.60;;;;;;5066219;28;20039;-63
2023/05/01 06:42:02;;;;;;;7.65;3.72;;;14.50;54.70;;;;;;5066084;28;20410;-63
2023/05/01 06:44:37;;;;;;;9.88;3.90;;;14.40;54.80;;;;;;5047102;28;20070;-62
2023/05/01 06:47:03;;;;;;;12.23;4.50;;;14.40;54.90;;;;;;5046769;28;20105;-63
2023/05/01 06:49:29;;;;;;;8.13;4.25;;;14.40;54.90;;;;;;5063272;28;20040;-63
2023/05/01 06:51:55;;;;;;;7.80;3.63;;;14.40;54.90;;;;;;5058645;28;20084;-63
2023/05/01 06:54:20;;;;;;;8.95;3.92;;;14.40;55.00;;;;;;5068480;28;20036;-63
2023/05/01 06:56:47;;;;;;;7.20;3.78;;;14.40;55.10;;;;;;5060501;28;20414;-63
2023/05/01 06:59:12;;;;;;;7.40;3.80;;;14.40;55.10;;;;;;5066462;28;20035;-64
2023/05/01 07:01:38;;;;;;;8.48;3.67;;;14.50;55.20;;;;;;5072319;28;20024;-64
2023/05/01 07:04:04;;;;;;;9.15;4.35;;;14.40;55.20;;;;;;5066553;28;20028;-64
2023/05/01 07:06:31;;;;;;;10.98;4.32;;;14.40;55.20;;;;;;5070445;28;20055;-65
2023/05/01 07:08:57;;;;;;;8.40;3.80;;;14.40;55.30;;;;;;5069743;28;20449;-64
2023/05/01 07:11:22;;;;;;;10.23;4.30;;;14.40;55.40;;;;;;5061863;28;20028;-65
2023/05/01 07:13:48;;;;;;;9.18;4.03;;;14.40;55.50;;;;;;5063435;28;20027;-64
2023/05/01 07:16:14;;;;;;;8.02;4.43;;;14.50;55.50;;;;;;5069520;28;20404;-64
2023/05/01 07:18:39;;;;;;;8.98;4.32;;;14.50;55.50;;;;;;5067042;28;20115;-65
2023/05/01 07:21:05;;;;;;;8.55;4.20;;;14.50;55.50;;;;;;5070900;28;20032;-65
2023/05/01 07:23:31;;;;;;;10.40;4.10;;;14.60;55.60;;;;;;5072155;28;20115;-65
2023/05/01 07:25:57;;;;;;;10.63;4.53;;;14.60;55.50;;;;;;5056115;28;20052;-64
2023/05/01 07:28:22;;;;;;;9.23;4.32;;;14.60;55.40;;;;;;5060223;28;20028;-65
2023/05/01 07:30:48;;;;;;;8.38;4.05;;;14.70;56.00;;;;;;5058258;28;20029;-65
2023/05/01 07:33:14;;;;;;;9.02;4.68;;;14.60;55.30;;;;;;5061831;28;20108;-64
2023/05/01 07:35:40;;;;;;;8.95;4.38;;;14.70;55.30;;;;;;5067306;28;20043;-63
2023/05/01 07:38:06;;;;;;;10.93;4.50;;;14.70;55.30;;;;;;5073286;28;20500;-63
2023/05/01 07:40:33;;;;;;;9.50;4.10;;;14.80;56.00;;;;;;5062979;28;20017;-63
2023/05/01 07:42:59;;;;;;;11.13;5.60;;;14.80;55.30;;;;;;5064922;28;20035;-62
2023/05/01 07:45:25;;;;;;;10.52;4.53;;;14.90;55.20;;;;;;5074167;28;20021;-64
2023/05/01 07:47:51;;;;;;;8.48;4.75;;;15.00;55.30;;;;;;5069929;28;20365;-64
2023/05/01 07:50:17;;;;;;;8.40;4.18;;;15.10;55.20;;;;;;5067550;28;20028;-64
2023/05/01 07:52:43;;;;;;;11.10;4.88;;;15.20;55.20;;;;;;5070202;28;20115;-64
2023/05/01 07:55:09;;;;;;;8.70;4.13;;;15.30;55.00;;;;;;5067616;28;20318;-64
2023/05/01 07:57:35;;;;;;;10.57;4.53;;;15.40;54.80;;;;;;5062697;28;20134;-64
2023/05/01 08:00:01;;;;;;;8.88;4.18;;;15.50;54.60;;;;;;5064624;28;20456;-64
2023/05/01 08:02:26;;;;;;;9.05;4.35;;;15.60;54.50;;;;;;5072356;28;20032;-63
2023/05/01 08:04:52;;;;;;;9.07;4.45;;;15.70;54.30;;;;;;5065486;28;20033;-63
2023/05/01 08:07:18;;;;;;;9.80;4.88;;;15.80;54.20;;;;;;5073540;28;20027;-63
2023/05/01 08:09:45;;;;;;;9.95;4.85;;;15.90;54.20;;;;;;5063608;28;20598;-63
2023/05/01 08:12:11;;;;;;;9.95;4.55;;;15.90;54.20;;;;;;5067979;28;20024;-63
2023/05/01 08:14:37;;;;;;;9.82;4.68;;;16.00;54.20;;;;;;5062470;28;20029;-63
2023/05/01 08:17:03;;;;;;;9.50;4.72;;;16.10;54.20;;;;;;5071899;28;20025;-63
2023/05/01 08:19:29;;;;;;;9.68;5.28;;;16.10;54.10;;;;;;5066258;28;20358;-62
2023/05/01 08:21:55;;;;;;;9.32;4.63;;;16.20;54.10;;;;;;5060919;28;20024;-62
2023/05/01 08:24:20;;;;;;;10.90;4.82;;;16.30;54.00;;;;;;5069286;28;20036;-63
2023/05/01 08:26:47;;;;;;;9.25;4.97;;;16.50;53.90;;;;;;5057580;28;20032;-63
2023/05/01 08:29:13;;;;;;;9.20;4.40;;;16.70;53.70;;;;;;5060112;28;20047;-63
2023/05/01 08:31:41;;;;;;;10.48;5.22;;;16.90;53.50;;;;;;5067982;28;20025;-63
2023/05/01 08:34:07;;;;;;;8.75;4.35;;;17.10;53.30;;;;;;5056860;28;20028;-63
2023/05/01 08:36:33;;;;;;;10.50;4.47;;;17.20;53.20;;;;;;5055195;28;20029;-64
2023/05/01 08:38:59;;;;;;;9.10;4.57;;;17.40;53.10;;;;;;5066038;28;20024;-65
2023/05/01 08:41:27;;;;;;;7.30;4.03;;;17.50;53.10;;;;;;5056464;28;20475;-63
2023/05/01 08:43:56;;;;;;;7.78;4.03;;;17.70;53.00;;;;;;5054695;28;20029;-63
2023/05/01 08:46:33;;;;;;;8.50;4.18;;;17.80;52.80;;;;;;5063247;28;20139;-64
2023/05/01 08:49:01;;;;;;;9.07;4.30;;;17.90;52.70;;;;;;5061884;28;20389;-64
2023/05/01 08:51:30;;;;;;;10.23;4.20;;;17.90;52.60;;;;;;5065021;28;20016;-64
2023/05/01 08:53:58;;;;;;;8.77;4.18;;;18.10;52.30;;;;;;5063420;28;20112;-64
2023/05/01 08:56:24;;;;;;;8.73;4.50;;;18.30;52.10;;;;;;5076580;28;20517;-63
2023/05/01 08:58:52;;;;;;;9.82;4.45;;;18.60;51.80;;;;;;5070658;28;20111;-64
2023/05/01 09:01:21;;;;;;;7.72;3.58;;;18.90;51.40;;;;;;5070908;28;20312;-64
2023/05/01 09:03:48;;;;;;;9.45;4.80;;;19.20;51.00;;;;;;5068397;28;20422;-64
2023/05/01 09:06:15;;;;;;;8.95;4.13;;;19.40;50.60;;;;;;5066454;28;20020;-64
2023/05/01 09:08:40;;;;;;;9.45;4.13;;;19.60;50.20;;;;;;5072388;28;20029;-64
2023/05/01 09:11:06;;;;;;;9.15;4.38;;;20.00;50.10;;;;;;5067953;28;20291;-64
2023/05/01 09:13:32;;;;;;;8.63;3.70;;;20.30;49.70;;;;;;5063039;28;20021;-64
2023/05/01 09:15:59;;;;;;;7.88;4.22;;;20.50;49.20;;;;;;5072253;28;20028;-64
2023/05/01 09:18:26;;;;;;;10.73;3.60;;;20.80;48.80;;;;;;5070450;28;20453;-64
2023/05/01 09:20:53;;;;;;;6.45;3.30;;;21.10;48.50;;;;;;5075948;28;20037;-64
2023/05/01 09:23:19;;;;;;;9.60;3.78;;;21.30;48.20;;;;;;5069810;28;20044;-64
2023/05/01 09:25:45;;;;;;;8.07;3.45;;;21.50;47.80;;;;;;5067851;28;20025;-64
2023/05/01 09:28:11;;;;;;;7.82;3.90;;;21.60;47.30;;;;;;5076007;28;20040;-64
2023/05/01 09:30:38;;;;;;;8.60;3.58;;;21.70;46.90;;;;;;5076776;28;20024;-64
2023/05/01 09:33:14;;;;;;;7.10;3.40;;;21.80;46.60;;;;;;5076128;28;20108;-64
2023/05/01 09:35:53;;;;;;;7.25;2.95;;;21.90;46.30;;;;;;5070511;28;20120;-64
2023/05/01 09:38:24;;;;;;;10.27;3.50;;;22.00;46.20;;;;;;5066066;28;20047;-64
2023/05/01 09:40:51;;;;;;;7.32;3.60;;;22.10;45.80;;;;;;5071490;28;20473;-65
2023/05/01 09:43:28;;;;;;;7.15;3.65;;;22.10;45.60;;;;;;5075019;28;20029;-65
2023/05/01 09:46:08;;;;;;;6.93;3.42;;;22.20;45.10;;;;;;5072477;28;20021;-65
2023/05/01 09:48:34;;;;;;;8.63;3.55;;;22.10;44.90;;;;;;5067581;28;20040;-65
2023/05/01 09:51:18;;;;;;;6.53;3.40;;;22.00;45.20;;;;;;5076410;28;20028;-65
2023/05/01 09:53:44;;;;;;;7.07;3.25;;;22.00;45.30;;;;;;5073312;28;20033;-65
2023/05/01 09:56:10;;;;;;;6.93;3.47;;;22.00;45.40;;;;;;5075486;28;20040;-65
2023/05/01 09:58:36;;;;;;;9.30;3.55;;;22.00;45.20;;;;;;5065483;28;20033;-65
2023/05/01 10:01:02;;;;;;;7.07;3.47;;;21.90;45.10;;;;;;5068773;28;20034;-65
2023/05/01 10:03:27;;;;;;;6.80;3.40;;;21.80;45.10;;;;;;5059872;28;20040;-64
2023/05/01 10:05:55;;;;;;;7.32;3.22;;;21.80;45.10;;;;;;5069927;28;20027;-65
2023/05/01 10:08:21;;;;;;;7.50;3.47;;;21.90;45.20;;;;;;5071074;28;20065;-65
2023/05/01 10:11:06;;;;;;;6.85;3.50;;;22.00;45.10;;;;;;5070532;28;20025;-65
2023/05/01 10:13:32;;;;;;;7.30;3.42;;;22.10;44.70;;;;;;5069485;28;20357;-65
2023/05/01 10:16:00;;;;;;;7.63;3.22;;;22.20;44.60;;;;;;5074715;28;20035;-65
2023/05/01 10:18:27;;;;;;;7.18;3.67;;;22.30;44.40;;;;;;5064334;28;20052;-65
2023/05/01 10:20:53;;;;;;;7.35;3.30;;;22.40;44.30;;;;;;5071672;28;20419;-65
2023/05/01 10:23:19;;;;;;;7.90;3.60;;;22.50;44.30;;;;;;5074992;28;20024;-66
2023/05/01 10:25:48;;;;;;;7.40;3.28;;;22.40;44.30;;;;;;5065415;28;20107;-65
2023/05/01 10:28:14;;;;;;;6.72;3.17;;;22.30;44.40;;;;;;5068250;28;20051;-66
2023/05/01 10:30:41;;;;;;;6.43;3.17;;;22.10;44.50;;;;;;5065871;28;20111;-65
2023/05/01 10:33:07;;;;;;;6.88;3.15;;;22.10;44.60;;;;;;5070033;28;20427;-65
2023/05/01 10:35:37;;;;;;;6.68;3.60;;;22.10;44.70;;;;;;5072278;28;20345;-65
2023/05/01 10:38:08;;;;;;;7.65;2.92;;;22.10;44.60;;;;;;5070691;28;20062;-66
2023/05/01 10:40:46;;;;;;;7.43;3.63;;;22.20;44.70;;;;;;5075709;28;20037;-66
2023/05/01 10:43:12;;;;;;;7.47;2.97;;;22.20;44.50;;;;;;5076058;28;20025;-66
2023/05/01 10:45:38;;;;;;;8.43;3.40;;;22.20;44.70;;;;;;5076307;28;20112;-66
2023/05/01 10:48:04;;;;;;;7.05;3.10;;;22.40;44.80;;;;;;5075853;28;20396;-66
2023/05/01 10:50:30;;;;;;;7.82;3.47;;;22.40;44.80;;;;;;5068253;28;20384;-66
2023/05/01 10:53:11;;;;;;;7.20;3.25;;;22.40;44.80;;;;;;5075290;28;20044;-66
2023/05/01 10:55:42;;;;;;;8.43;3.63;;;22.30;45.20;;;;;;5076077;28;20112;-66
2023/05/01 10:58:08;;;;;;;8.77;3.33;;;22.30;44.90;;;;;;5074421;28;20063;-65
2023/05/01 11:00:34;;;;;;;6.65;3.30;;;22.30;45.20;;;;;;5065606;28;20501;-65
2023/05/01 11:03:21;;;;;;;7.15;3.20;;;22.20;45.10;;;;;;5075262;28;20127;-65
2023/05/01 11:06:00;;;;;;;7.68;3.03;;;22.20;45.00;;;;;;5075312;28;20063;-65
2023/05/01 11:08:37;;;;;;;5.72;2.80;;;22.10;44.70;;;;;;5075282;28;20448;-65
2023/05/01 11:11:21;;;;;;;8.52;3.17;;;22.20;44.60;;;;;;5070613;28;20024;-65
2023/05/01 11:14:07;;;;;;;6.05;2.45;;;22.20;44.80;;;;;;5075298;28;20047;-65
2023/05/01 11:16:36;;;;;;;7.18;2.90;;;22.30;44.70;;;;;;5075333;28;20021;-66
2023/05/01 11:19:03;;;;;;;7.88;2.53;;;22.50;44.40;;;;;;5074110;28;20433;-65
2023/05/01 11:21:32;;;;;;;6.35;2.33;;;22.70;44.30;;;;;;5069734;28;20032;-65
2023/05/01 11:23:59;;;;;;;6.78;2.85;;;22.90;44.20;;;;;;5072588;28;20035;-64
2023/05/01 11:26:26;;;;;;;5.07;2.42;;;23.00;43.90;;;;;;5062465;28;20024;-65
2023/05/01 11:28:54;;;;;;;6.03;2.45;;;23.10;43.90;;;;;;5073925;28;20028;-65
2023/05/01 11:31:20;;;;;;;5.75;2.72;;;23.20;43.90;;;;;;5066768;28;20062;-65
2023/05/01 11:33:46;;;;;;;4.97;2.50;;;23.10;43.80;;;;;;5069868;28;20076;-65
2023/05/01 11:36:13;;;;;;;6.18;2.60;;;22.90;43.80;;;;;;5074531;28;20039;-66
2023/05/01 11:38:52;;;;;;;5.07;2.25;;;22.60;44.00;;;;;;5074549;28;20103;-65
2023/05/01 11:41:21;;;;;;;5.50;2.17;;;22.40;44.40;;;;;;5067476;28;20036;-65
2023/05/01 11:43:52;;;;;;;6.55;2.17;;;22.20;44.80;;;;;;5071486;28;20119;-65
2023/05/01 11:46:28;;;;;;;5.03;2.20;;;22.00;45.20;;;;;;5074720;28;20421;-65
2023/05/01 11:48:55;;;;;;;4.93;1.90;;;21.90;45.20;;;;;;5063344;28;20083;-65
2023/05/01 11:51:22;;;;;;;4.63;1.77;;;21.80;45.10;;;;;;5058951;28;20074;-65
2023/05/01 11:54:16;;;;;;;5.78;1.75;;;21.70;44.90;;;;;;5062871;28;20118;-65
2023/05/01 11:56:42;;;;;;;3.92;1.38;;;21.80;44.60;;;;;;5039948;28;20118;-65
2023/05/01 11:59:16;;;;;;;4.35;1.58;;;21.90;44.60;;;;;;5063281;28;20369;-65
2023/05/01 12:01:43;;;;;;;3.85;1.52;;;21.90;44.30;;;;;;5072876;28;20362;-65
2023/05/01 12:04:13;;;;;;;3.67;1.63;;;22.00;44.30;;;;;;5072304;28;20124;-66
2023/05/01 12:06:44;;;;;;;4.78;1.77;;;21.90;44.20;;;;;;5071134;28;20107;-66
2023/05/01 12:09:19;;;;;;;4.03;1.95;;;21.90;44.20;;;;;;5073355;28;20124;-66
2023/05/01 12:11:46;;;;;;;5.05;2.00;;;21.80;44.10;;;;;;5074222;28;20036;-66
2023/05/01 12:14:14;;;;;;;4.55;2.10;;;21.70;44.00;;;;;;5065682;28;20025;-66
2023/05/01 12:16:41;;;;;;;4.15;1.75;;;21.50;43.90;;;;;;5069808;28;20108;-65
2023/05/01 12:19:07;;;;;;;4.88;1.67;;;21.40;44.10;;;;;;5071018;28;20045;-65
2023/05/01 12:21:35;;;;;;;5.32;1.75;;;21.20;44.20;;;;;;5061072;28;20033;-65
2023/05/01 12:24:14;;;;;;;4.85;1.63;;;21.10;44.30;;;;;;5058564;28;20051;-65
2023/05/01 12:26:41;;;;;;;3.50;1.48;;;21.00;44.60;;;;;;5055689;28;20033;-65
2023/05/01 12:29:10;;;;;;;4.82;1.60;;;20.90;44.90;;;;;;5069524;28;20102;-65
2023/05/01 12:31:45;;;;;;;6.07;2.25;;;20.80;44.80;;;;;;5066728;28;20029;-65
2023/05/01 12:34:11;;;;;;;5.60;1.70;;;20.80;44.60;;;;;;5067832;28;20044;-65
2023/05/01 12:36:38;;;;;;;5.38;1.83;;;20.70;44.50;;;;;;5066397;28;20073;-65
2023/05/01 12:39:06;;;;;;;4.70;1.80;;;20.70;44.40;;;;;;5074149;28;20445;-65
2023/05/01 12:41:41;;;;;;;5.40;1.77;;;20.70;44.60;;;;;;5068301;28;20107;-65
2023/05/01 12:44:19;;;;;;;5.22;1.98;;;20.60;44.40;;;;;;5073152;28;20028;-65
2023/05/01 12:46:52;;;;;;;4.95;2.00;;;20.60;44.10;;;;;;5058434;28;20029;-65
2023/05/01 12:49:19;;;;;;;4.78;1.55;;;20.60;44.10;;;;;;5070894;28;20021;-65
2023/05/01 12:51:49;;;;;;;6.07;1.60;;;20.70;44.30;;;;;;5068996;28;20036;-65
2023/05/01 12:54:19;;;;;;;3.95;1.35;;;20.80;44.40;;;;;;5063704;28;20087;-65